Terminal Aerodrome Forecast
Issued by NWS Twin Cities, MN

Home | Current Version | Previous Version | Text Only | Print | Product List | Glossary Off
Versions: 1 2 3 4 5 6 7 8 9 10 11 12 13 14 15 16 17 18 19 20 21 22 23 24

000
FTUS43 KMPX 200849 AAB
TAFMSP
TAF AMD
KMSP 200849Z 2009/2112 19005KT P6SM SCT300
     FM201500 16008KT P6SM BKN180
     FM201900 20010KT P6SM BKN150
     FM210400 25010KT P6SM SCT200
     FM210900 30021G32KT P6SM SCT040=

USA.gov is the U.S. government's official web portal to all federal, state and local government web resources and services.